Time;durP1;ratioP1;P1;durP2;ratioP2;P2;SDS_P1;SDS_P2;PMS_P1;PMS_P2;Temp;Humidity;BMP_temperature;BMP_pressure;BME280_temperature;BME280_humidity;BME280_pressure;Samples;Min_cycle;Max_cycle;Signal;HPM_P1;HPM_P2
2022/12/25 00:00:54;;;;;;;6.90;3.40;;;10.10;90.00;;;;;;5046687;28;20423;-73
2022/12/25 00:03:20;;;;;;;5.63;2.97;;;10.00;90.00;;;;;;5045165;28;20211;-74
2022/12/25 00:05:45;;;;;;;7.83;3.07;;;10.00;90.20;;;;;;5047175;28;20177;-74
2022/12/25 00:08:11;;;;;;;6.40;3.20;;;10.10;90.20;;;;;;5048015;28;20184;-74
2022/12/25 00:10:37;;;;;;;6.83;3.77;;;10.10;90.20;;;;;;5042635;28;20216;-73
2022/12/25 00:13:02;;;;;;;7.43;3.87;;;10.10;90.00;;;;;;5046048;28;20204;-73
2022/12/25 00:15:28;;;;;;;7.00;3.93;;;10.10;90.00;;;;;;5049784;28;20183;-72
2022/12/25 00:17:53;;;;;;;7.33;3.60;;;10.10;90.30;;;;;;5046152;28;20682;-73
2022/12/25 00:20:19;;;;;;;6.33;3.50;;;10.10;90.30;;;;;;5052125;28;20609;-73
2022/12/25 00:22:44;;;;;;;9.50;4.30;;;10.00;90.30;;;;;;5051464;28;20282;-74
2022/12/25 00:25:10;;;;;;;5.73;3.60;;;10.00;90.20;;;;;;5049807;28;20644;-74
2022/12/25 00:27:38;;;;;;;8.30;3.40;;;10.00;90.40;;;;;;5049623;28;20184;-73
2022/12/25 00:30:06;;;;;;;7.73;4.13;;;10.00;90.60;;;;;;5050853;28;20196;-73
2022/12/25 00:32:35;;;;;;;4.40;3.00;;;10.10;90.60;;;;;;5039258;28;20451;-74
2022/12/25 00:35:01;;;;;;;6.60;3.87;;;10.10;90.30;;;;;;5052798;28;20800;-73
2022/12/25 00:37:26;;;;;;;7.67;3.93;;;10.10;90.20;;;;;;5051483;28;20426;-74
2022/12/25 00:39:52;;;;;;;8.00;4.07;;;10.20;90.20;;;;;;5052725;28;20419;-74
2022/12/25 00:42:18;;;;;;;5.70;3.53;;;10.20;90.20;;;;;;5060018;28;20624;-73
2022/12/25 00:44:47;;;;;;;7.63;3.77;;;10.30;90.20;;;;;;5051935;28;20196;-73
2022/12/25 00:47:13;;;;;;;7.20;3.87;;;10.30;90.20;;;;;;5049242;28;20197;-73
2022/12/25 00:49:39;;;;;;;5.80;3.70;;;10.30;89.90;;;;;;5044012;28;20462;-74
2022/12/25 00:52:04;;;;;;;7.37;3.80;;;10.30;89.90;;;;;;5049075;28;20459;-74
2022/12/25 00:54:30;;;;;;;5.97;2.93;;;10.30;89.90;;;;;;5050059;28;20567;-73
2022/12/25 00:56:56;;;;;;;6.07;3.47;;;10.20;89.70;;;;;;5051669;28;20183;-74
2022/12/25 00:59:21;;;;;;;10.00;3.80;;;10.10;89.90;;;;;;5059838;28;20180;-73
2022/12/25 01:01:47;;;;;;;10.93;3.80;;;10.00;90.00;;;;;;5050997;28;20184;-74
2022/12/25 01:04:12;;;;;;;6.10;3.50;;;9.90;90.40;;;;;;5050371;28;20185;-74
2022/12/25 01:06:39;;;;;;;6.53;3.10;;;9.90;90.60;;;;;;5051993;28;20238;-73
2022/12/25 01:11:49;;;;;;;7.10;3.50;;;10.00;90.90;;;;;;5045058;28;20437;-74
2022/12/25 01:14:15;;;;;;;7.43;3.80;;;9.90;90.80;;;;;;5051582;28;20426;-73
2022/12/25 01:16:40;;;;;;;7.40;3.77;;;10.00;91.00;;;;;;5051307;28;20241;-74
2022/12/25 01:19:06;;;;;;;5.40;3.83;;;10.00;90.70;;;;;;5046405;28;20643;-73
2022/12/25 01:21:32;;;;;;;5.80;3.90;;;10.10;90.60;;;;;;5050481;28;20179;-74
2022/12/25 01:23:58;;;;;;;9.07;3.67;;;10.10;90.60;;;;;;5048162;28;20668;-73
2022/12/25 01:26:25;;;;;;;5.50;3.50;;;10.10;90.70;;;;;;5048368;28;20432;-72
2022/12/25 01:28:52;;;;;;;8.47;4.30;;;10.10;90.70;;;;;;5049715;28;20338;-73
2022/12/25 01:31:20;;;;;;;7.30;3.90;;;10.10;90.60;;;;;;5046041;28;20482;-73
2022/12/25 01:33:46;;;;;;;9.40;3.90;;;10.20;90.40;;;;;;5038692;28;20467;-74
2022/12/25 01:36:17;;;;;;;7.90;4.30;;;10.20;90.40;;;;;;5046526;28;20504;-73
2022/12/25 01:38:44;;;;;;;5.03;3.03;;;10.20;90.40;;;;;;5052631;28;20926;-73
2022/12/25 01:41:12;;;;;;;4.20;3.10;;;10.30;90.40;;;;;;5045699;28;20428;-73
2022/12/25 01:43:56;;;;;;;6.37;3.67;;;10.30;90.20;;;;;;5048678;28;20481;-73
2022/12/25 01:46:22;;;;;;;11.27;4.40;;;10.40;89.90;;;;;;5047173;28;20407;-73
2022/12/25 01:48:48;;;;;;;8.03;3.60;;;10.40;89.70;;;;;;5051275;28;20494;-73
2022/12/25 01:51:25;;;;;;;5.23;3.43;;;10.40;89.50;;;;;;5047619;28;20212;-73
2022/12/25 01:53:51;;;;;;;4.17;3.20;;;10.30;89.60;;;;;;5048264;28;20458;-73
2022/12/25 01:56:17;;;;;;;3.90;3.20;;;10.30;89.60;;;;;;5046792;28;20411;-73
2022/12/25 01:58:43;;;;;;;6.13;4.10;;;10.20;89.70;;;;;;5049847;28;20914;-73
2022/12/25 02:01:09;;;;;;;6.33;3.07;;;10.30;90.00;;;;;;5046870;28;20441;-74
2022/12/25 02:03:35;;;;;;;4.70;3.03;;;10.30;90.00;;;;;;5048359;28;21062;-73
2022/12/25 02:06:02;;;;;;;5.40;3.40;;;10.30;89.90;;;;;;5046696;28;20431;-72
2022/12/25 02:08:29;;;;;;;7.37;5.10;;;10.30;89.70;;;;;;5047924;28;20434;-72
2022/12/25 02:10:54;;;;;;;6.33;3.83;;;10.20;89.60;;;;;;5048281;28;20471;-72
2022/12/25 02:13:21;;;;;;;6.10;4.30;;;10.20;89.90;;;;;;5044329;28;20470;-74
2022/12/25 02:16:08;;;;;;;8.97;5.50;;;10.20;90.00;;;;;;5067249;28;20181;-76
2022/12/25 02:18:55;;;;;;;6.53;4.40;;;10.10;90.00;;;;;;5043700;28;20418;-76
2022/12/25 02:21:53;;;;;;;11.10;6.13;;;10.10;90.40;;;;;;5044111;28;20470;-73
2022/12/25 02:24:59;;;;;;;7.50;5.00;;;10.00;90.70;;;;;;5037716;28;20427;-73
2022/12/25 02:28:03;;;;;;;7.93;5.40;;;10.00;90.90;;;;;;5043327;28;20420;-74
2022/12/25 02:30:35;;;;;;;9.33;4.73;;;10.00;91.10;;;;;;5037380;28;20476;-73
2022/12/25 02:35:56;;;;;;;8.17;4.40;;;9.90;91.10;;;;;;5041539;28;20418;-73
2022/12/25 02:38:36;;;;;;;8.60;5.00;;;9.90;91.30;;;;;;5039431;28;20427;-75
2022/12/25 02:41:08;;;;;;;6.97;5.00;;;9.90;91.30;;;;;;5041507;28;20470;-75
2022/12/25 03:06:54;;;;;;;8.67;5.83;;;10.00;91.20;;;;;;5033708;28;20414;-75
2022/12/25 03:12:13;;;;;;;11.40;6.30;;;9.90;91.30;;;;;;5033646;28;20458;-75
2022/12/25 03:17:23;;;;;;;8.70;5.30;;;9.80;91.50;;;;;;5037850;28;20415;-74
2022/12/25 03:28:03;;;;;;;11.70;5.50;;;9.80;91.90;;;;;;5040947;28;20922;-74
2022/12/25 03:35:21;;;;;;;11.30;5.27;;;9.80;91.80;;;;;;5043938;28;20458;-73
2022/12/25 04:37:52;;;;;;;5.80;4.03;;;9.90;91.10;;;;;;5045312;28;20398;-74
2022/12/25 04:40:17;;;;;;;8.63;4.20;;;9.90;91.20;;;;;;5041529;28;20420;-75
2022/12/25 04:42:43;;;;;;;5.33;3.60;;;9.90;91.30;;;;;;5049039;28;20287;-74
2022/12/25 04:45:10;;;;;;;8.60;4.13;;;9.90;91.20;;;;;;5043060;28;20189;-75
2022/12/25 04:47:35;;;;;;;7.67;4.10;;;9.90;91.10;;;;;;5047676;28;20253;-74
2022/12/25 04:50:01;;;;;;;10.40;3.80;;;9.90;91.10;;;;;;5040664;28;20471;-74
2022/12/25 04:52:26;;;;;;;9.50;4.20;;;9.90;91.20;;;;;;5047731;28;20204;-72
2022/12/25 04:54:52;;;;;;;4.80;3.17;;;9.90;91.20;;;;;;5041900;28;20181;-73
2022/12/25 04:57:17;;;;;;;7.27;4.20;;;9.90;91.30;;;;;;5049831;28;20177;-73
2022/12/25 04:59:43;;;;;;;7.40;4.03;;;9.90;91.20;;;;;;5043576;28;20681;-73
2022/12/25 05:02:09;;;;;;;5.43;3.73;;;9.90;91.10;;;;;;5048022;28;20596;-73
2022/12/25 05:04:34;;;;;;;11.70;4.17;;;9.90;91.20;;;;;;5043760;28;20590;-74
2022/12/25 05:07:00;;;;;;;7.07;3.93;;;9.90;91.20;;;;;;5045278;28;20367;-72
2022/12/25 05:09:25;;;;;;;7.10;4.00;;;10.00;91.20;;;;;;5048126;28;20196;-74
2022/12/25 05:11:51;;;;;;;8.33;3.80;;;10.00;91.10;;;;;;5048688;28;20185;-74
2022/12/25 05:14:17;;;;;;;7.17;4.10;;;10.00;91.10;;;;;;5052227;28;20182;-72
2022/12/25 05:16:42;;;;;;;9.87;4.83;;;10.00;91.00;;;;;;5051462;28;20268;-73
2022/12/25 05:19:09;;;;;;;6.20;3.80;;;10.00;90.90;;;;;;5041367;28;20212;-74
2022/12/25 05:21:34;;;;;;;9.87;3.40;;;10.00;91.00;;;;;;5049515;28;20626;-73
2022/12/25 05:24:00;;;;;;;7.60;4.00;;;9.90;90.90;;;;;;5048271;28;20462;-74
2022/12/25 05:26:26;;;;;;;8.60;4.23;;;9.90;90.80;;;;;;5054091;28;20185;-74
2022/12/25 05:28:52;;;;;;;11.10;5.30;;;9.80;90.70;;;;;;5049282;28;20534;-75
2022/12/25 05:31:19;;;;;;;6.50;4.40;;;9.70;90.80;;;;;;5047442;28;20921;-75
2022/12/25 05:33:45;;;;;;;9.10;5.73;;;9.70;91.00;;;;;;5045021;28;20537;-74
2022/12/25 05:36:11;;;;;;;7.00;3.90;;;9.70;91.10;;;;;;5044906;28;20436;-74
2022/12/25 05:38:38;;;;;;;9.40;4.70;;;9.70;91.20;;;;;;5041862;28;20188;-73
2022/12/25 05:41:04;;;;;;;6.87;4.50;;;9.70;91.30;;;;;;5043232;28;20427;-73
2022/12/25 05:43:29;;;;;;;9.53;4.50;;;9.70;91.20;;;;;;5046477;28;20469;-74
2022/12/25 05:45:55;;;;;;;7.73;3.97;;;9.70;91.30;;;;;;5043049;28;20457;-73
2022/12/25 05:48:21;;;;;;;6.93;5.23;;;9.70;91.30;;;;;;5043160;28;20278;-73
2022/12/25 05:50:47;;;;;;;8.03;6.20;;;9.70;91.20;;;;;;5045112;28;20201;-73
2022/12/25 05:53:14;;;;;;;12.60;5.30;;;9.80;91.20;;;;;;5047341;28;20473;-73
2022/12/25 05:55:45;;;;;;;9.83;4.60;;;9.70;91.10;;;;;;5046561;28;20226;-73
2022/12/25 05:58:12;;;;;;;7.67;5.00;;;9.80;91.20;;;;;;5051141;28;20443;-73
2022/12/25 06:00:39;;;;;;;11.50;5.87;;;9.80;91.10;;;;;;5045267;28;20416;-73
2022/12/25 06:03:05;;;;;;;10.00;5.43;;;9.70;91.00;;;;;;5045149;28;20467;-74
2022/12/25 06:05:31;;;;;;;8.80;5.60;;;9.70;91.00;;;;;;5049687;28;20426;-73
2022/12/25 06:07:57;;;;;;;7.47;4.93;;;9.70;91.20;;;;;;5043825;28;20263;-74
2022/12/25 06:10:22;;;;;;;7.43;5.20;;;9.70;91.20;;;;;;5036388;28;20612;-75
2022/12/25 06:12:48;;;;;;;7.90;5.00;;;9.70;91.30;;;;;;5042359;28;20200;-75
2022/12/25 06:15:13;;;;;;;8.13;4.90;;;9.80;91.20;;;;;;5035514;28;20185;-73
2022/12/25 06:17:39;;;;;;;8.17;5.27;;;9.80;91.00;;;;;;5042971;28;20183;-74
2022/12/25 06:20:06;;;;;;;8.60;4.90;;;9.80;91.10;;;;;;5034831;28;20682;-75
2022/12/25 06:22:32;;;;;;;10.80;5.23;;;9.90;91.00;;;;;;5044692;28;20206;-73
2022/12/25 06:24:58;;;;;;;6.97;4.30;;;9.90;90.90;;;;;;5038681;28;20429;-75
2022/12/25 06:27:24;;;;;;;7.47;4.87;;;9.90;90.90;;;;;;5041343;28;20416;-74
2022/12/25 06:29:49;;;;;;;8.33;4.70;;;9.90;90.90;;;;;;5038634;28;20459;-74
2022/12/25 06:32:15;;;;;;;10.90;5.40;;;9.90;90.90;;;;;;5039512;28;20208;-74
2022/12/25 06:34:40;;;;;;;7.97;4.70;;;10.00;90.80;;;;;;5036776;28;20652;-74
2022/12/25 06:37:06;;;;;;;8.77;4.90;;;10.00;90.70;;;;;;5038328;28;20177;-73
2022/12/25 06:39:32;;;;;;;9.13;5.40;;;10.00;90.60;;;;;;5039518;28;20185;-74
2022/12/25 06:41:57;;;;;;;10.40;5.40;;;10.00;90.60;;;;;;5040313;28;20208;-75
2022/12/25 06:44:23;;;;;;;13.80;5.33;;;9.90;90.60;;;;;;5044695;28;20189;-73
2022/12/25 06:46:49;;;;;;;9.00;5.10;;;9.90;90.60;;;;;;5041018;28;20227;-73
2022/12/25 06:49:14;;;;;;;8.97;5.00;;;9.90;90.50;;;;;;5043599;28;20197;-74
2022/12/25 06:51:40;;;;;;;10.77;5.70;;;9.80;90.60;;;;;;5042397;28;20173;-74
2022/12/25 06:54:05;;;;;;;8.63;5.10;;;9.80;90.70;;;;;;5042770;28;20196;-73
2022/12/25 06:56:32;;;;;;;8.57;4.80;;;9.70;90.90;;;;;;5041027;28;20180;-74
2022/12/25 06:59:03;;;;;;;11.03;5.23;;;9.70;91.00;;;;;;5041401;28;20271;-74
2022/12/25 07:01:45;;;;;;;10.80;5.40;;;9.70;91.00;;;;;;5043798;28;20419;-74
2022/12/25 07:04:30;;;;;;;9.40;5.20;;;9.70;91.10;;;;;;5041883;28;20954;-74
2022/12/25 07:06:57;;;;;;;8.50;4.50;;;9.80;91.20;;;;;;5033587;28;20420;-74
2022/12/25 07:09:23;;;;;;;9.33;4.50;;;9.80;91.20;;;;;;5042310;28;20424;-74
2022/12/25 07:11:48;;;;;;;7.13;4.57;;;9.90;91.10;;;;;;5037133;28;20426;-73
2022/12/25 07:14:17;;;;;;;6.90;4.53;;;9.80;90.90;;;;;;5041476;28;20185;-74
2022/12/25 07:16:43;;;;;;;7.47;4.93;;;9.80;90.90;;;;;;5038627;28;20234;-74
2022/12/25 07:19:09;;;;;;;9.83;4.70;;;9.80;91.00;;;;;;5039985;28;20424;-74
2022/12/25 07:21:34;;;;;;;7.50;4.57;;;9.80;90.90;;;;;;5039771;28;20181;-74
2022/12/25 07:24:00;;;;;;;6.00;3.50;;;9.80;90.90;;;;;;5042935;28;20837;-73
2022/12/25 07:26:25;;;;;;;4.93;3.50;;;9.90;91.00;;;;;;5042819;28;20211;-74
2022/12/25 07:28:51;;;;;;;7.70;4.33;;;9.90;91.00;;;;;;5043650;28;20196;-73
2022/12/25 07:31:17;;;;;;;8.10;4.00;;;10.00;90.80;;;;;;5045023;28;20588;-73
2022/12/25 07:33:43;;;;;;;6.20;3.70;;;10.00;90.70;;;;;;5045729;28;20251;-74
2022/12/25 07:36:10;;;;;;;7.10;3.90;;;10.00;90.60;;;;;;5045697;28;20591;-73
2022/12/25 07:38:36;;;;;;;9.50;3.70;;;10.00;90.40;;;;;;5045732;28;20804;-73
2022/12/25 07:41:01;;;;;;;9.63;4.40;;;10.10;90.40;;;;;;5046288;28;20513;-72
2022/12/25 07:43:27;;;;;;;5.00;3.87;;;10.00;90.40;;;;;;5049279;28;20224;-74
2022/12/25 07:45:59;;;;;;;5.53;3.57;;;10.10;90.40;;;;;;5045337;28;20611;-74
2022/12/25 07:48:26;;;;;;;7.10;3.70;;;10.10;90.30;;;;;;5042497;28;20209;-74
2022/12/25 07:51:04;;;;;;;6.23;3.60;;;10.10;90.20;;;;;;5044261;28;20535;-75
2022/12/25 07:53:29;;;;;;;6.00;4.37;;;10.10;90.10;;;;;;5045802;28;20465;-75
2022/12/25 07:56:00;;;;;;;7.97;4.00;;;10.10;90.20;;;;;;5047527;28;20435;-75
2022/12/25 07:58:27;;;;;;;7.47;4.07;;;10.10;90.40;;;;;;5037394;28;20188;-74
2022/12/25 08:00:53;;;;;;;4.77;3.77;;;10.10;90.40;;;;;;5042093;28;20826;-75
2022/12/25 08:03:19;;;;;;;4.37;3.67;;;10.10;90.70;;;;;;5045884;28;20601;-76
2022/12/25 08:05:45;;;;;;;5.23;4.37;;;10.00;90.40;;;;;;5041010;28;20177;-75
2022/12/25 08:08:11;;;;;;;5.43;4.10;;;10.00;90.60;;;;;;5040624;28;20190;-75
2022/12/25 08:10:36;;;;;;;9.73;5.03;;;10.00;90.60;;;;;;5041083;28;20469;-75
2022/12/25 08:13:02;;;;;;;7.47;4.10;;;10.10;90.60;;;;;;5037623;28;20840;-73
2022/12/25 08:15:29;;;;;;;5.97;4.07;;;10.10;90.60;;;;;;5040108;28;20197;-75
2022/12/25 08:17:55;;;;;;;6.90;4.53;;;10.10;90.40;;;;;;5041661;28;20188;-75
2022/12/25 08:20:20;;;;;;;8.77;4.67;;;10.10;90.40;;;;;;5040098;28;20461;-76
2022/12/25 08:22:46;;;;;;;8.57;5.07;;;10.10;90.40;;;;;;5042751;28;20224;-74
2022/12/25 08:25:12;;;;;;;20.60;11.13;;;10.10;90.40;;;;;;5039074;28;20185;-74
2022/12/25 08:27:37;;;;;;;8.93;5.80;;;10.10;90.60;;;;;;5040763;28;20188;-76
2022/12/25 08:30:03;;;;;;;8.47;4.70;;;10.20;90.50;;;;;;5032957;28;20216;-73
2022/12/25 08:32:32;;;;;;;9.13;4.47;;;10.20;90.50;;;;;;5042177;28;20220;-77
2022/12/25 08:34:58;;;;;;;8.80;4.80;;;10.20;90.40;;;;;;5039191;28;20458;-75
2022/12/25 08:37:23;;;;;;;9.00;5.10;;;10.30;90.40;;;;;;5046014;28;20451;-76
2022/12/25 08:39:49;;;;;;;9.57;5.03;;;10.30;90.40;;;;;;5047763;28;20195;-76
2022/12/25 08:42:14;;;;;;;7.40;4.70;;;10.30;90.40;;;;;;5041455;28;20204;-75
2022/12/25 08:44:40;;;;;;;7.53;4.90;;;10.30;90.20;;;;;;5045258;28;20238;-74
2022/12/25 08:47:05;;;;;;;6.60;3.87;;;10.20;90.30;;;;;;5038169;28;20256;-73
2022/12/25 08:49:31;;;;;;;7.80;4.80;;;10.30;90.20;;;;;;5045046;28;20204;-75
2022/12/25 08:51:56;;;;;;;6.33;4.20;;;10.30;90.10;;;;;;5038534;28;20217;-74
2022/12/25 08:54:23;;;;;;;7.90;4.10;;;10.30;90.20;;;;;;5048258;28;20249;-75
2022/12/25 08:56:49;;;;;;;5.87;4.10;;;10.30;90.20;;;;;;5040262;28;20181;-76
2022/12/25 08:59:14;;;;;;;6.00;4.37;;;10.30;90.30;;;;;;5045114;28;20472;-73
2022/12/25 09:01:40;;;;;;;6.63;4.90;;;10.30;90.30;;;;;;5044637;28;20181;-73
2022/12/25 09:04:05;;;;;;;6.87;4.20;;;10.30;90.10;;;;;;5045564;28;20659;-74
2022/12/25 09:06:31;;;;;;;8.93;5.23;;;10.30;90.10;;;;;;5051925;28;20200;-73
2022/12/25 09:08:57;;;;;;;10.20;6.30;;;10.30;90.10;;;;;;5051594;28;20212;-74
2022/12/25 09:11:23;;;;;;;11.73;5.93;;;10.30;90.10;;;;;;5051386;28;20235;-74
2022/12/25 09:13:49;;;;;;;13.20;7.13;;;10.30;90.10;;;;;;5049486;28;20201;-75
2022/12/25 09:16:18;;;;;;;8.60;5.40;;;10.30;90.10;;;;;;5049621;28;20423;-74
2022/12/25 09:18:44;;;;;;;11.27;5.80;;;10.40;90.20;;;;;;5049909;28;20547;-71
2022/12/25 09:21:12;;;;;;;10.97;5.97;;;10.40;90.10;;;;;;5043795;28;20435;-72
2022/12/25 09:23:38;;;;;;;10.57;5.23;;;10.30;90.20;;;;;;5037533;28;20216;-72
2022/12/25 09:26:06;;;;;;;9.40;4.80;;;10.30;90.20;;;;;;5046042;28;20433;-72
2022/12/25 09:28:32;;;;;;;6.90;4.70;;;10.30;90.30;;;;;;5034668;28;20663;-72
2022/12/25 09:30:58;;;;;;;7.10;5.00;;;10.30;90.30;;;;;;5039881;28;20475;-73
2022/12/25 09:33:24;;;;;;;7.37;4.77;;;10.30;90.30;;;;;;5035950;28;20505;-72
2022/12/25 09:36:01;;;;;;;6.00;4.50;;;10.30;90.10;;;;;;5043455;28;20844;-72
2022/12/25 09:38:27;;;;;;;8.33;5.40;;;10.30;89.90;;;;;;5039207;28;20465;-72
2022/12/25 09:41:11;;;;;;;5.17;4.47;;;10.40;89.70;;;;;;5034828;28;20440;-72
2022/12/25 09:43:45;;;;;;;8.53;4.90;;;10.30;89.70;;;;;;5039796;28;20465;-73
2022/12/25 09:46:16;;;;;;;6.20;4.80;;;10.30;89.90;;;;;;5035534;28;20801;-72
2022/12/25 09:48:48;;;;;;;9.20;5.87;;;10.30;90.00;;;;;;5042296;28;20438;-71
2022/12/25 09:51:16;;;;;;;11.37;5.50;;;10.40;90.00;;;;;;5034904;28;20467;-72
2022/12/25 09:53:49;;;;;;;8.57;5.23;;;10.40;90.10;;;;;;5038130;28;20462;-73
2022/12/25 09:56:24;;;;;;;11.30;5.10;;;10.50;90.20;;;;;;5050073;28;20902;-75
2022/12/25 09:58:50;;;;;;;8.50;5.70;;;10.60;90.10;;;;;;5045360;28;20415;-74
2022/12/25 10:01:31;;;;;;;6.43;4.90;;;10.60;90.10;;;;;;5048721;28;20438;-74
2022/12/25 10:04:34;;;;;;;8.00;5.13;;;10.70;90.00;;;;;;5046820;28;20768;-75
2022/12/25 10:07:09;;;;;;;9.47;4.60;;;10.70;90.00;;;;;;5043081;28;20427;-75
2022/12/25 10:09:40;;;;;;;7.03;4.87;;;10.80;89.90;;;;;;5042446;28;20418;-75
2022/12/25 10:12:38;;;;;;;7.53;4.63;;;10.90;89.90;;;;;;5043672;28;21230;-74
2022/12/25 10:15:23;;;;;;;6.90;4.60;;;10.90;89.60;;;;;;5044180;28;20449;-75
2022/12/25 10:18:27;;;;;;;6.33;4.50;;;11.00;89.50;;;;;;5037801;28;20454;-75
2022/12/25 10:20:55;;;;;;;7.07;4.50;;;11.00;89.30;;;;;;5009243;28;20618;-75
2022/12/25 10:23:33;;;;;;;7.93;4.50;;;11.10;89.00;;;;;;5030573;28;20470;-75
2022/12/25 10:25:58;;;;;;;7.17;4.83;;;11.20;89.00;;;;;;5043191;28;20474;-75
2022/12/25 10:28:42;;;;;;;9.00;4.90;;;11.20;88.90;;;;;;5049520;28;20510;-74
2022/12/25 10:31:22;;;;;;;6.37;4.37;;;11.30;88.90;;;;;;5045541;28;20227;-75
2022/12/25 10:33:50;;;;;;;7.33;4.97;;;11.50;88.60;;;;;;5046884;28;20804;-74
2022/12/25 10:36:23;;;;;;;7.40;5.00;;;11.60;88.00;;;;;;5050770;28;20472;-74
2022/12/25 10:38:48;;;;;;;9.37;5.63;;;11.70;87.80;;;;;;5048831;28;20514;-74
2022/12/25 10:41:20;;;;;;;11.97;6.30;;;11.90;87.40;;;;;;5043654;28;20511;-73
2022/12/25 10:43:53;;;;;;;8.93;5.03;;;12.00;87.30;;;;;;5044196;28;20288;-74
2022/12/25 10:46:21;;;;;;;10.40;5.37;;;12.20;87.10;;;;;;5045184;28;20419;-74
2022/12/25 10:48:58;;;;;;;9.93;6.10;;;12.40;86.80;;;;;;5043841;28;20889;-74
2022/12/25 10:51:33;;;;;;;8.27;4.80;;;12.60;85.90;;;;;;5042691;28;20451;-74
2022/12/25 10:54:02;;;;;;;8.60;5.20;;;12.80;86.00;;;;;;5038359;28;20462;-76
2022/12/25 10:56:27;;;;;;;11.10;6.10;;;13.00;83.80;;;;;;5039833;28;20423;-75
2022/12/25 10:59:08;;;;;;;8.23;5.30;;;13.20;83.30;;;;;;5039497;28;20972;-74
2022/12/25 11:01:34;;;;;;;6.37;3.87;;;13.40;82.40;;;;;;5040960;28;20185;-74
2022/12/25 11:03:59;;;;;;;5.20;3.97;;;13.60;81.70;;;;;;5039150;28;20462;-75
2022/12/25 11:06:31;;;;;;;6.73;3.87;;;13.70;81.70;;;;;;5039544;28;20180;-74
2022/12/25 11:08:59;;;;;;;6.27;4.00;;;13.80;81.10;;;;;;5040678;28;20189;-74
2022/12/25 11:11:26;;;;;;;6.50;4.83;;;13.90;80.80;;;;;;5037753;28;20469;-75
2022/12/25 11:13:56;;;;;;;11.63;6.93;;;14.00;80.60;;;;;;5039047;28;20982;-75
2022/12/25 11:16:32;;;;;;;4.30;3.10;;;14.00;79.90;;;;;;5045857;28;20455;-74
2022/12/25 11:18:58;;;;;;;4.70;3.00;;;13.90;79.30;;;;;;5043136;28;20468;-75
2022/12/25 11:21:30;;;;;;;5.63;2.70;;;13.90;79.60;;;;;;5044323;28;20977;-74
2022/12/25 11:24:16;;;;;;;7.63;3.03;;;13.90;79.90;;;;;;5038393;28;20455;-75
2022/12/25 11:26:51;;;;;;;5.37;2.73;;;14.00;79.90;;;;;;5046403;28;20449;-75
2022/12/25 11:29:38;;;;;;;4.53;2.60;;;14.00;79.60;;;;;;5048451;28;20430;-74
2022/12/25 11:32:10;;;;;;;4.17;3.00;;;13.90;79.70;;;;;;5040466;28;20475;-74
2022/12/25 11:34:41;;;;;;;4.17;2.73;;;14.00;79.60;;;;;;5045408;28;20470;-76
2022/12/25 11:37:18;;;;;;;4.90;2.90;;;14.00;79.60;;;;;;5045062;28;20411;-75
2022/12/25 11:39:44;;;;;;;5.13;2.73;;;14.00;79.60;;;;;;5045438;28;20502;-74
2022/12/25 11:42:35;;;;;;;6.43;3.20;;;14.10;79.70;;;;;;5035933;28;20570;-75
2022/12/25 11:45:17;;;;;;;7.50;3.70;;;14.20;79.00;;;;;;5041368;28;20182;-75
2022/12/25 11:47:55;;;;;;;4.50;2.47;;;14.30;78.90;;;;;;5038994;28;20438;-74
2022/12/25 11:50:37;;;;;;;3.93;3.07;;;14.50;78.70;;;;;;5044140;28;20475;-74
2022/12/25 11:53:17;;;;;;;5.27;3.10;;;14.70;78.10;;;;;;5041367;28;20451;-74
2022/12/25 11:55:55;;;;;;;4.93;3.33;;;14.80;77.80;;;;;;5043701;28;20435;-74
2022/12/25 11:58:24;;;;;;;4.57;3.20;;;15.00;77.40;;;;;;5048788;28;20419;-74
2022/12/25 12:00:53;;;;;;;5.70;3.70;;;15.00;77.00;;;;;;5048578;28;20505;-74
2022/12/25 12:03:28;;;;;;;7.40;3.70;;;15.10;76.70;;;;;;5044525;28;20459;-74
2022/12/25 12:06:09;;;;;;;4.80;3.30;;;15.00;76.50;;;;;;5033939;28;20438;-77
2022/12/25 12:08:35;;;;;;;7.77;4.67;;;14.90;77.00;;;;;;5037466;28;20450;-76
2022/12/25 12:11:14;;;;;;;10.20;3.97;;;14.90;77.00;;;;;;5037811;28;20519;-75
2022/12/25 12:14:05;;;;;;;6.87;4.27;;;14.90;77.10;;;;;;5043102;28;21011;-77
2022/12/25 12:16:31;;;;;;;5.57;3.43;;;14.90;77.30;;;;;;5040484;28;20420;-77
2022/12/25 12:18:57;;;;;;;5.90;3.80;;;15.00;77.00;;;;;;5046272;28;20416;-75
2022/12/25 12:21:29;;;;;;;6.63;4.00;;;15.00;77.00;;;;;;5046557;28;20440;-75
2022/12/25 12:24:18;;;;;;;9.67;5.03;;;15.00;77.00;;;;;;5043046;28;20599;-76
2022/12/25 12:26:46;;;;;;;6.40;4.23;;;15.00;77.00;;;;;;5046483;28;21003;-77
2022/12/25 12:29:47;;;;;;;5.63;3.87;;;14.90;77.30;;;;;;5040317;28;20529;-77
2022/12/25 12:32:43;;;;;;;6.37;4.23;;;15.00;77.40;;;;;;5045579;28;21126;-76
2022/12/25 12:35:08;;;;;;;5.23;3.73;;;15.00;77.60;;;;;;5043049;28;20508;-77
2022/12/25 12:37:36;;;;;;;6.53;4.03;;;14.90;77.40;;;;;;5043605;28;20845;-78
2022/12/25 12:40:06;;;;;;;7.43;3.63;;;14.90;78.00;;;;;;5043627;28;20670;-76
2022/12/25 12:42:39;;;;;;;6.00;3.70;;;14.90;77.80;;;;;;5043575;28;20470;-76
2022/12/25 12:45:21;;;;;;;2.93;2.67;;;14.90;78.10;;;;;;5049906;28;20426;-76
2022/12/25 12:47:49;;;;;;;4.13;2.83;;;14.90;77.40;;;;;;5042434;28;20528;-76
2022/12/25 12:50:30;;;;;;;4.47;2.37;;;15.00;77.10;;;;;;5047477;28;21080;-76
2022/12/25 12:52:56;;;;;;;5.73;3.10;;;15.20;76.50;;;;;;5047251;28;20489;-77
2022/12/25 12:55:33;;;;;;;4.03;2.83;;;15.20;76.20;;;;;;5048008;28;20436;-77
2022/12/25 12:58:00;;;;;;;3.70;2.80;;;15.40;75.80;;;;;;5041020;28;20525;-77
2022/12/25 13:00:35;;;;;;;3.47;2.50;;;15.60;75.20;;;;;;5046937;28;20419;-76
2022/12/25 13:03:30;;;;;;;4.00;2.57;;;15.70;75.20;;;;;;5046104;28;20858;-77
2022/12/25 13:06:18;;;;;;;5.73;3.13;;;15.80;74.60;;;;;;5036633;28;20438;-77
2022/12/25 13:08:49;;;;;;;8.37;4.37;;;15.90;74.60;;;;;;5043947;28;20423;-77
2022/12/25 13:11:20;;;;;;;7.27;3.30;;;16.00;74.20;;;;;;5038089;28;20537;-75
2022/12/25 13:13:47;;;;;;;3.30;2.13;;;16.00;73.90;;;;;;5042082;28;20450;-74
2022/12/25 13:16:31;;;;;;;3.10;2.27;;;16.10;73.30;;;;;;5039456;28;20441;-76
2022/12/25 13:18:59;;;;;;;4.13;2.63;;;16.10;73.00;;;;;;5043572;28;20552;-75
2022/12/25 13:21:27;;;;;;;3.77;2.40;;;16.10;73.00;;;;;;5041682;28;20442;-76
2022/12/25 13:24:01;;;;;;;4.73;2.47;;;16.20;73.00;;;;;;5045059;28;20647;-76
2022/12/25 13:26:28;;;;;;;2.23;2.00;;;16.30;72.10;;;;;;5043215;28;21139;-76
2022/12/25 13:28:55;;;;;;;4.07;2.57;;;16.30;71.80;;;;;;5041576;28;20411;-75
2022/12/25 13:31:25;;;;;;;6.67;2.47;;;16.30;71.80;;;;;;5040243;28;20469;-75
2022/12/25 13:34:17;;;;;;;3.10;2.17;;;16.30;71.70;;;;;;5045363;28;20547;-74
2022/12/25 13:36:43;;;;;;;2.57;2.20;;;16.20;71.70;;;;;;5048937;28;20501;-73
2022/12/25 13:39:14;;;;;;;3.20;2.17;;;16.20;71.70;;;;;;5041560;28;20507;-74
2022/12/25 13:42:05;;;;;;;6.13;2.30;;;16.10;72.10;;;;;;5049408;28;20239;-75
2022/12/25 13:44:43;;;;;;;3.53;2.30;;;16.20;72.40;;;;;;5046346;28;20445;-76
2022/12/25 13:47:25;;;;;;;3.50;2.40;;;16.10;72.00;;;;;;5044599;28;20837;-75
2022/12/25 13:49:53;;;;;;;3.73;2.17;;;16.10;72.10;;;;;;5038198;28;20826;-75
2022/12/25 13:52:34;;;;;;;4.97;2.20;;;16.20;72.10;;;;;;5041470;28;20469;-74
2022/12/25 13:55:17;;;;;;;2.27;1.70;;;16.10;72.30;;;;;;5038332;28;20449;-74
2022/12/25 13:57:55;;;;;;;3.80;2.60;;;16.10;72.30;;;;;;5036757;28;20422;-75
2022/12/25 14:00:24;;;;;;;3.67;2.30;;;16.00;72.10;;;;;;5040354;28;20982;-74
2022/12/25 14:02:50;;;;;;;2.93;2.30;;;16.00;72.30;;;;;;5036605;28;20456;-74
2022/12/25 14:05:31;;;;;;;5.20;2.90;;;16.00;72.40;;;;;;5042364;28;20420;-74
2022/12/25 14:08:00;;;;;;;8.23;3.77;;;16.00;72.70;;;;;;5040037;28;20430;-75
2022/12/25 14:10:31;;;;;;;5.67;3.17;;;16.00;73.00;;;;;;5046800;28;20472;-74
2022/12/25 14:13:00;;;;;;;5.03;2.53;;;15.90;73.20;;;;;;5034442;28;20471;-74
2022/12/25 14:15:29;;;;;;;5.27;2.63;;;15.90;73.50;;;;;;5045772;28;20445;-74
2022/12/25 14:17:55;;;;;;;3.10;2.40;;;15.70;73.60;;;;;;5044374;28;20413;-74
2022/12/25 14:20:22;;;;;;;4.13;2.40;;;15.60;73.30;;;;;;5044985;28;20436;-74
2022/12/25 14:22:52;;;;;;;3.37;3.17;;;15.50;73.60;;;;;;5045369;28;20209;-75
2022/12/25 14:25:18;;;;;;;5.10;2.90;;;15.60;73.70;;;;;;5041283;28;20425;-75
2022/12/25 14:27:49;;;;;;;3.70;2.23;;;15.50;74.30;;;;;;5044667;28;20796;-74
2022/12/25 14:30:15;;;;;;;3.20;2.23;;;15.40;74.30;;;;;;5043591;28;21049;-75
2022/12/25 14:32:45;;;;;;;4.50;2.87;;;15.30;74.30;;;;;;5039164;28;20470;-74
2022/12/25 14:35:11;;;;;;;2.57;1.90;;;15.20;75.20;;;;;;5044244;28;20419;-74
2022/12/25 14:37:37;;;;;;;4.27;2.30;;;15.10;75.90;;;;;;5040779;28;20419;-74
2022/12/25 14:40:18;;;;;;;3.30;2.50;;;15.00;76.20;;;;;;5044860;28;20972;-73
2022/12/25 14:43:13;;;;;;;5.13;2.67;;;14.80;76.70;;;;;;5038901;28;20275;-74
2022/12/25 14:45:38;;;;;;;7.60;3.73;;;14.60;77.70;;;;;;5036846;28;20436;-74
2022/12/25 14:48:22;;;;;;;4.20;2.80;;;14.50;78.10;;;;;;5041152;28;21405;-77
2022/12/25 14:51:14;;;;;;;4.90;3.30;;;14.40;78.70;;;;;;5046054;28;20202;-74